sensor_id;sensor_type;location;lat;lon;timestamp;temperature;humidity
51486;DHT22;37565;51.352;6.412;2022-07-11T00:00:56;23.70;99.90
51486;DHT22;37565;51.352;6.412;2022-07-11T00:03:26;23.70;99.90
51486;DHT22;37565;51.352;6.412;2022-07-11T00:05:54;23.60;99.90
51486;DHT22;37565;51.352;6.412;2022-07-11T00:08:22;23.60;99.90
51486;DHT22;37565;51.352;6.412;2022-07-11T00:10:50;23.60;99.90
51486;DHT22;37565;51.352;6.412;2022-07-11T00:13:20;23.60;99.90
51486;DHT22;37565;51.352;6.412;2022-07-11T00:15:48;23.60;99.80
51486;DHT22;37565;51.352;6.412;2022-07-11T00:18:16;23.60;99.90
51486;DHT22;37565;51.352;6.412;2022-07-11T00:20:45;23.60;99.90
51486;DHT22;37565;51.352;6.412;2022-07-11T00:23:13;23.60;99.90
51486;DHT22;37565;51.352;6.412;2022-07-11T00:25:41;23.60;99.90
51486;DHT22;37565;51.352;6.412;2022-07-11T00:28:09;23.60;99.90
51486;DHT22;37565;51.352;6.412;2022-07-11T00:30:37;23.60;99.90
51486;DHT22;37565;51.352;6.412;2022-07-11T00:33:05;23.60;99.90
51486;DHT22;37565;51.352;6.412;2022-07-11T00:35:33;23.60;99.90
51486;DHT22;37565;51.352;6.412;2022-07-11T00:38:03;23.60;99.90
51486;DHT22;37565;51.352;6.412;2022-07-11T00:40:31;23.60;99.90
51486;DHT22;37565;51.352;6.412;2022-07-11T00:42:59;23.60;99.90
51486;DHT22;37565;51.352;6.412;2022-07-11T00:45:27;23.60;99.90
51486;DHT22;37565;51.352;6.412;2022-07-11T00:47:55;23.50;99.90
51486;DHT22;37565;51.352;6.412;2022-07-11T00:50:25;23.50;99.90
51486;DHT22;37565;51.352;6.412;2022-07-11T00:52:55;23.50;99.90
51486;DHT22;37565;51.352;6.412;2022-07-11T00:55:26;23.50;99.90
51486;DHT22;37565;51.352;6.412;2022-07-11T00:57:55;23.50;99.90
51486;DHT22;37565;51.352;6.412;2022-07-11T01:00:23;23.50;99.90
51486;DHT22;37565;51.352;6.412;2022-07-11T01:02:51;23.50;99.90
51486;DHT22;37565;51.352;6.412;2022-07-11T01:05:19;23.50;99.90
51486;DHT22;37565;51.352;6.412;2022-07-11T01:07:47;23.50;99.90
51486;DHT22;37565;51.352;6.412;2022-07-11T01:10:15;23.50;99.90
51486;DHT22;37565;51.352;6.412;2022-07-11T01:12:45;23.50;99.90
51486;DHT22;37565;51.352;6.412;2022-07-11T01:15:14;23.50;99.90
51486;DHT22;37565;51.352;6.412;2022-07-11T01:17:42;23.50;99.90
51486;DHT22;37565;51.352;6.412;2022-07-11T01:20:11;23.50;99.90
51486;DHT22;37565;51.352;6.412;2022-07-11T01:22:43;23.50;99.90
51486;DHT22;37565;51.352;6.412;2022-07-11T01:25:12;23.40;99.90
51486;DHT22;37565;51.352;6.412;2022-07-11T01:27:56;23.40;99.90
51486;DHT22;37565;51.352;6.412;2022-07-11T01:30:25;23.40;99.90
51486;DHT22;37565;51.352;6.412;2022-07-11T01:32:54;23.40;99.90
51486;DHT22;37565;51.352;6.412;2022-07-11T01:35:23;23.40;99.90
51486;DHT22;37565;51.352;6.412;2022-07-11T01:37:51;23.40;99.90
51486;DHT22;37565;51.352;6.412;2022-07-11T01:40:27;23.40;99.90
51486;DHT22;37565;51.352;6.412;2022-07-11T01:42:55;23.40;99.90
51486;DHT22;37565;51.352;6.412;2022-07-11T01:45:23;23.40;99.90
51486;DHT22;37565;51.352;6.412;2022-07-11T01:47:51;23.40;99.90
51486;DHT22;37565;51.352;6.412;2022-07-11T01:50:19;23.40;99.90
51486;DHT22;37565;51.352;6.412;2022-07-11T01:52:47;23.40;99.90
51486;DHT22;37565;51.352;6.412;2022-07-11T01:55:15;23.40;99.90
51486;DHT22;37565;51.352;6.412;2022-07-11T01:57:44;23.40;99.90
51486;DHT22;37565;51.352;6.412;2022-07-11T02:00:13;23.40;99.90
51486;DHT22;37565;51.352;6.412;2022-07-11T02:02:41;23.40;99.90
51486;DHT22;37565;51.352;6.412;2022-07-11T02:05:09;23.40;99.90
51486;DHT22;37565;51.352;6.412;2022-07-11T02:07:37;23.40;99.90
51486;DHT22;37565;51.352;6.412;2022-07-11T02:10:22;23.30;99.90
51486;DHT22;37565;51.352;6.412;2022-07-11T02:12:57;23.30;99.90
51486;DHT22;37565;51.352;6.412;2022-07-11T02:15:25;23.40;99.90
51486;DHT22;37565;51.352;6.412;2022-07-11T02:17:53;23.40;99.90
51486;DHT22;37565;51.352;6.412;2022-07-11T02:20:22;23.30;99.90
51486;DHT22;37565;51.352;6.412;2022-07-11T02:22:50;23.30;99.90
51486;DHT22;37565;51.352;6.412;2022-07-11T02:25:18;23.30;99.90
51486;DHT22;37565;51.352;6.412;2022-07-11T02:27:47;23.30;99.90
51486;DHT22;37565;51.352;6.412;2022-07-11T02:30:18;23.30;99.90
51486;DHT22;37565;51.352;6.412;2022-07-11T02:32:46;23.30;99.90
51486;DHT22;37565;51.352;6.412;2022-07-11T02:35:14;23.30;99.90
51486;DHT22;37565;51.352;6.412;2022-07-11T02:37:42;23.30;99.90
51486;DHT22;37565;51.352;6.412;2022-07-11T02:40:11;23.30;99.90
51486;DHT22;37565;51.352;6.412;2022-07-11T02:42:39;23.30;99.90
51486;DHT22;37565;51.352;6.412;2022-07-11T02:45:07;23.30;99.90
51486;DHT22;37565;51.352;6.412;2022-07-11T02:47:38;23.30;99.90
51486;DHT22;37565;51.352;6.412;2022-07-11T02:50:08;23.30;99.90
51486;DHT22;37565;51.352;6.412;2022-07-11T02:52:38;23.30;99.90
51486;DHT22;37565;51.352;6.412;2022-07-11T02:55:08;23.30;99.90
51486;DHT22;37565;51.352;6.412;2022-07-11T02:57:37;23.20;99.90
51486;DHT22;37565;51.352;6.412;2022-07-11T03:00:09;23.30;99.90
51486;DHT22;37565;51.352;6.412;2022-07-11T03:02:38;23.20;99.90
51486;DHT22;37565;51.352;6.412;2022-07-11T03:05:07;23.30;99.90
51486;DHT22;37565;51.352;6.412;2022-07-11T03:07:35;23.20;99.90
51486;DHT22;37565;51.352;6.412;2022-07-11T03:10:04;23.20;99.90
51486;DHT22;37565;51.352;6.412;2022-07-11T03:12:33;23.20;99.90
51486;DHT22;37565;51.352;6.412;2022-07-11T03:15:01;23.20;99.90
51486;DHT22;37565;51.352;6.412;2022-07-11T03:17:29;23.20;99.90
51486;DHT22;37565;51.352;6.412;2022-07-11T03:19:58;23.20;99.90
51486;DHT22;37565;51.352;6.412;2022-07-11T03:22:27;23.20;99.90
51486;DHT22;37565;51.352;6.412;2022-07-11T03:24:55;23.20;99.90
51486;DHT22;37565;51.352;6.412;2022-07-11T03:27:23;23.20;99.90
51486;DHT22;37565;51.352;6.412;2022-07-11T03:29:51;23.20;99.90
51486;DHT22;37565;51.352;6.412;2022-07-11T03:32:19;23.20;99.90
51486;DHT22;37565;51.352;6.412;2022-07-11T03:34:54;23.20;99.90
51486;DHT22;37565;51.352;6.412;2022-07-11T03:37:41;23.20;99.90
51486;DHT22;37565;51.352;6.412;2022-07-11T03:40:10;23.20;99.90
51486;DHT22;37565;51.352;6.412;2022-07-11T03:42:38;23.20;99.90
51486;DHT22;37565;51.352;6.412;2022-07-11T03:45:07;23.20;99.90
51486;DHT22;37565;51.352;6.412;2022-07-11T03:47:35;23.20;99.90
51486;DHT22;37565;51.352;6.412;2022-07-11T03:50:05;23.20;99.90
51486;DHT22;37565;51.352;6.412;2022-07-11T03:52:33;23.20;99.90
51486;DHT22;37565;51.352;6.412;2022-07-11T03:55:02;23.20;99.90
51486;DHT22;37565;51.352;6.412;2022-07-11T03:57:31;23.20;99.90
51486;DHT22;37565;51.352;6.412;2022-07-11T04:00:00;23.20;99.90
51486;DHT22;37565;51.352;6.412;2022-07-11T04:02:31;23.20;99.90
51486;DHT22;37565;51.352;6.412;2022-07-11T04:04:59;23.20;99.90
51486;DHT22;37565;51.352;6.412;2022-07-11T04:07:27;23.20;99.90
51486;DHT22;37565;51.352;6.412;2022-07-11T04:09:55;23.10;99.90
51486;DHT22;37565;51.352;6.412;2022-07-11T04:12:25;23.20;99.90
51486;DHT22;37565;51.352;6.412;2022-07-11T04:14:53;23.10;99.90
51486;DHT22;37565;51.352;6.412;2022-07-11T04:17:21;23.10;99.90
51486;DHT22;37565;51.352;6.412;2022-07-11T04:19:49;23.20;99.90
51486;DHT22;37565;51.352;6.412;2022-07-11T04:22:17;23.20;99.90
51486;DHT22;37565;51.352;6.412;2022-07-11T04:24:45;23.20;99.90
51486;DHT22;37565;51.352;6.412;2022-07-11T04:27:13;23.20;99.90
51486;DHT22;37565;51.352;6.412;2022-07-11T04:29:49;23.20;99.90
51486;DHT22;37565;51.352;6.412;2022-07-11T04:32:17;23.20;99.90
51486;DHT22;37565;51.352;6.412;2022-07-11T04:34:45;23.10;99.90
51486;DHT22;37565;51.352;6.412;2022-07-11T04:37:13;23.20;99.90
51486;DHT22;37565;51.352;6.412;2022-07-11T04:39:41;23.20;99.90
51486;DHT22;37565;51.352;6.412;2022-07-11T04:42:12;23.10;99.90
51486;DHT22;37565;51.352;6.412;2022-07-11T04:44:39;23.10;99.90
51486;DHT22;37565;51.352;6.412;2022-07-11T04:47:10;23.10;99.90
51486;DHT22;37565;51.352;6.412;2022-07-11T04:49:38;23.10;99.90
51486;DHT22;37565;51.352;6.412;2022-07-11T04:52:06;23.10;99.90
51486;DHT22;37565;51.352;6.412;2022-07-11T04:54:34;23.10;99.90
51486;DHT22;37565;51.352;6.412;2022-07-11T04:57:02;23.10;99.90
51486;DHT22;37565;51.352;6.412;2022-07-11T04:59:31;23.10;99.90
51486;DHT22;37565;51.352;6.412;2022-07-11T05:01:58;23.10;99.90
51486;DHT22;37565;51.352;6.412;2022-07-11T05:04:28;23.10;99.90
51486;DHT22;37565;51.352;6.412;2022-07-11T05:06:56;23.10;99.90
51486;DHT22;37565;51.352;6.412;2022-07-11T05:09:24;23.10;99.90
51486;DHT22;37565;51.352;6.412;2022-07-11T05:11:52;23.10;99.90
51486;DHT22;37565;51.352;6.412;2022-07-11T05:14:20;23.00;99.90
51486;DHT22;37565;51.352;6.412;2022-07-11T05:16:48;23.10;99.90
51486;DHT22;37565;51.352;6.412;2022-07-11T05:19:16;23.10;99.90
51486;DHT22;37565;51.352;6.412;2022-07-11T05:21:45;23.10;99.90
51486;DHT22;37565;51.352;6.412;2022-07-11T05:24:13;23.00;99.90
51486;DHT22;37565;51.352;6.412;2022-07-11T05:26:41;23.10;99.90
51486;DHT22;37565;51.352;6.412;2022-07-11T05:29:11;23.00;99.90
51486;DHT22;37565;51.352;6.412;2022-07-11T05:31:39;23.00;99.90
51486;DHT22;37565;51.352;6.412;2022-07-11T05:34:09;23.00;99.90
51486;DHT22;37565;51.352;6.412;2022-07-11T05:36:37;23.10;99.90
51486;DHT22;37565;51.352;6.412;2022-07-11T05:39:07;23.00;99.90
51486;DHT22;37565;51.352;6.412;2022-07-11T05:41:35;23.00;99.90
51486;DHT22;37565;51.352;6.412;2022-07-11T05:44:04;23.00;99.90
51486;DHT22;37565;51.352;6.412;2022-07-11T05:46:32;23.00;99.90
51486;DHT22;37565;51.352;6.412;2022-07-11T05:49:00;23.00;99.90
51486;DHT22;37565;51.352;6.412;2022-07-11T05:51:28;23.00;99.90
51486;DHT22;37565;51.352;6.412;2022-07-11T05:53:56;23.00;99.90
51486;DHT22;37565;51.352;6.412;2022-07-11T05:56:25;23.10;99.90
51486;DHT22;37565;51.352;6.412;2022-07-11T05:58:53;23.00;99.90
51486;DHT22;37565;51.352;6.412;2022-07-11T06:01:21;23.00;99.90
51486;DHT22;37565;51.352;6.412;2022-07-11T06:03:50;23.00;99.90
51486;DHT22;37565;51.352;6.412;2022-07-11T06:06:18;23.00;99.90
51486;DHT22;37565;51.352;6.412;2022-07-11T06:08:46;23.00;99.90
51486;DHT22;37565;51.352;6.412;2022-07-11T06:11:14;23.00;99.90
51486;DHT22;37565;51.352;6.412;2022-07-11T06:13:44;23.00;99.90
51486;DHT22;37565;51.352;6.412;2022-07-11T06:16:12;23.00;99.90
51486;DHT22;37565;51.352;6.412;2022-07-11T06:18:40;23.00;99.90
51486;DHT22;37565;51.352;6.412;2022-07-11T06:21:09;23.00;99.90
51486;DHT22;37565;51.352;6.412;2022-07-11T06:23:38;23.00;99.90
51486;DHT22;37565;51.352;6.412;2022-07-11T06:26:07;23.00;99.90
51486;DHT22;37565;51.352;6.412;2022-07-11T06:28:35;23.00;99.90
51486;DHT22;37565;51.352;6.412;2022-07-11T06:31:04;23.00;99.90
51486;DHT22;37565;51.352;6.412;2022-07-11T06:33:33;23.00;99.90
51486;DHT22;37565;51.352;6.412;2022-07-11T06:36:01;23.00;99.90
51486;DHT22;37565;51.352;6.412;2022-07-11T06:38:29;23.00;99.90
51486;DHT22;37565;51.352;6.412;2022-07-11T06:40:58;23.10;99.90
51486;DHT22;37565;51.352;6.412;2022-07-11T06:43:29;23.10;99.90
51486;DHT22;37565;51.352;6.412;2022-07-11T06:45:57;23.10;99.90
51486;DHT22;37565;51.352;6.412;2022-07-11T06:48:27;23.10;99.90
51486;DHT22;37565;51.352;6.412;2022-07-11T06:50:55;23.10;99.90
51486;DHT22;37565;51.352;6.412;2022-07-11T06:53:31;23.10;99.90
51486;DHT22;37565;51.352;6.412;2022-07-11T06:55:59;23.00;99.90
51486;DHT22;37565;51.352;6.412;2022-07-11T06:58:27;23.10;99.90
51486;DHT22;37565;51.352;6.412;2022-07-11T07:01:04;23.10;99.90
51486;DHT22;37565;51.352;6.412;2022-07-11T07:03:34;23.10;99.90
51486;DHT22;37565;51.352;6.412;2022-07-11T07:06:02;23.10;99.90
51486;DHT22;37565;51.352;6.412;2022-07-11T07:08:32;23.10;99.90
51486;DHT22;37565;51.352;6.412;2022-07-11T07:11:00;23.10;99.90
51486;DHT22;37565;51.352;6.412;2022-07-11T07:13:34;23.10;99.90
51486;DHT22;37565;51.352;6.412;2022-07-11T07:16:02;23.10;99.90
51486;DHT22;37565;51.352;6.412;2022-07-11T07:18:31;23.10;99.90
51486;DHT22;37565;51.352;6.412;2022-07-11T07:21:00;23.10;99.90
51486;DHT22;37565;51.352;6.412;2022-07-11T07:23:28;23.10;99.90
51486;DHT22;37565;51.352;6.412;2022-07-11T07:25:56;23.10;99.90
51486;DHT22;37565;51.352;6.412;2022-07-11T07:28:25;23.10;99.90
51486;DHT22;37565;51.352;6.412;2022-07-11T07:30:55;23.10;99.90
51486;DHT22;37565;51.352;6.412;2022-07-11T07:33:23;23.10;99.90
51486;DHT22;37565;51.352;6.412;2022-07-11T07:36:11;23.10;99.90
51486;DHT22;37565;51.352;6.412;2022-07-11T07:38:40;23.20;99.90
51486;DHT22;37565;51.352;6.412;2022-07-11T07:41:11;23.10;99.90
51486;DHT22;37565;51.352;6.412;2022-07-11T07:43:39;23.20;99.90
51486;DHT22;37565;51.352;6.412;2022-07-11T07:46:08;23.20;99.90
51486;DHT22;37565;51.352;6.412;2022-07-11T07:48:37;23.20;99.90
51486;DHT22;37565;51.352;6.412;2022-07-11T07:51:06;23.20;99.90
51486;DHT22;37565;51.352;6.412;2022-07-11T07:53:36;23.20;99.90
51486;DHT22;37565;51.352;6.412;2022-07-11T07:56:05;23.20;99.90
51486;DHT22;37565;51.352;6.412;2022-07-11T07:58:33;23.00;99.90
51486;DHT22;37565;51.352;6.412;2022-07-11T08:01:01;22.80;99.90
51486;DHT22;37565;51.352;6.412;2022-07-11T08:03:46;22.60;99.90
51486;DHT22;37565;51.352;6.412;2022-07-11T08:06:14;22.40;99.90
51486;DHT22;37565;51.352;6.412;2022-07-11T08:08:44;22.30;99.90
51486;DHT22;37565;51.352;6.412;2022-07-11T08:11:12;22.00;99.90
51486;DHT22;37565;51.352;6.412;2022-07-11T08:13:56;21.90;99.90
51486;DHT22;37565;51.352;6.412;2022-07-11T08:16:25;22.00;99.90
51486;DHT22;37565;51.352;6.412;2022-07-11T08:18:56;22.10;99.90
51486;DHT22;37565;51.352;6.412;2022-07-11T08:21:24;22.10;99.90
51486;DHT22;37565;51.352;6.412;2022-07-11T08:23:54;22.00;99.90
51486;DHT22;37565;51.352;6.412;2022-07-11T08:26:22;22.00;99.90
51486;DHT22;37565;51.352;6.412;2022-07-11T08:28:59;21.90;99.90
51486;DHT22;37565;51.352;6.412;2022-07-11T08:31:27;21.90;99.90
51486;DHT22;37565;51.352;6.412;2022-07-11T08:33:55;21.90;99.90
51486;DHT22;37565;51.352;6.412;2022-07-11T08:36:26;21.90;99.90
51486;DHT22;37565;51.352;6.412;2022-07-11T08:38:58;21.90;99.90
51486;DHT22;37565;51.352;6.412;2022-07-11T08:41:26;21.90;99.90
51486;DHT22;37565;51.352;6.412;2022-07-11T08:43:55;21.90;99.90
51486;DHT22;37565;51.352;6.412;2022-07-11T08:46:24;21.90;99.90
51486;DHT22;37565;51.352;6.412;2022-07-11T08:48:53;21.90;99.90
51486;DHT22;37565;51.352;6.412;2022-07-11T08:51:22;22.00;99.90
51486;DHT22;37565;51.352;6.412;2022-07-11T08:53:50;22.10;99.90
51486;DHT22;37565;51.352;6.412;2022-07-11T08:56:21;22.30;99.90
51486;DHT22;37565;51.352;6.412;2022-07-11T08:58:50;22.40;99.90
51486;DHT22;37565;51.352;6.412;2022-07-11T09:01:27;22.50;99.90
51486;DHT22;37565;51.352;6.412;2022-07-11T09:03:57;22.60;99.90
51486;DHT22;37565;51.352;6.412;2022-07-11T09:06:25;22.70;99.90
51486;DHT22;37565;51.352;6.412;2022-07-11T09:08:57;22.80;99.90
51486;DHT22;37565;51.352;6.412;2022-07-11T09:11:28;22.90;99.90
51486;DHT22;37565;51.352;6.412;2022-07-11T09:13:56;23.00;99.90
51486;DHT22;37565;51.352;6.412;2022-07-11T09:16:24;23.00;99.90
51486;DHT22;37565;51.352;6.412;2022-07-11T09:18:58;23.00;99.90
51486;DHT22;37565;51.352;6.412;2022-07-11T09:21:26;23.00;99.90
51486;DHT22;37565;51.352;6.412;2022-07-11T09:24:11;23.00;99.90
51486;DHT22;37565;51.352;6.412;2022-07-11T09:26:57;23.00;99.90
51486;DHT22;37565;51.352;6.412;2022-07-11T09:29:25;23.00;99.90
51486;DHT22;37565;51.352;6.412;2022-07-11T09:31:54;23.00;99.90
51486;DHT22;37565;51.352;6.412;2022-07-11T09:34:23;23.00;99.90
51486;DHT22;37565;51.352;6.412;2022-07-11T09:36:54;23.00;99.90
51486;DHT22;37565;51.352;6.412;2022-07-11T09:39:24;23.00;99.90
51486;DHT22;37565;51.352;6.412;2022-07-11T09:41:53;23.00;99.90
51486;DHT22;37565;51.352;6.412;2022-07-11T09:44:24;23.10;99.90
51486;DHT22;37565;51.352;6.412;2022-07-11T09:46:55;23.10;99.90
51486;DHT22;37565;51.352;6.412;2022-07-11T09:49:31;23.10;99.90
51486;DHT22;37565;51.352;6.412;2022-07-11T09:52:07;23.10;99.90
51486;DHT22;37565;51.352;6.412;2022-07-11T09:54:52;23.10;99.90
51486;DHT22;37565;51.352;6.412;2022-07-11T09:57:29;23.20;99.90
51486;DHT22;37565;51.352;6.412;2022-07-11T09:59:58;23.20;99.90
51486;DHT22;37565;51.352;6.412;2022-07-11T10:02:27;23.20;99.90
51486;DHT22;37565;51.352;6.412;2022-07-11T10:04:57;23.20;99.90
51486;DHT22;37565;51.352;6.412;2022-07-11T10:07:27;23.20;99.90
51486;DHT22;37565;51.352;6.412;2022-07-11T10:09:57;23.30;99.90
51486;DHT22;37565;51.352;6.412;2022-07-11T10:12:26;23.30;99.90
51486;DHT22;37565;51.352;6.412;2022-07-11T10:14:55;23.30;99.90
51486;DHT22;37565;51.352;6.412;2022-07-11T10:17:30;23.40;99.90
51486;DHT22;37565;51.352;6.412;2022-07-11T10:20:04;23.30;99.90
51486;DHT22;37565;51.352;6.412;2022-07-11T10:22:39;23.40;99.90
51486;DHT22;37565;51.352;6.412;2022-07-11T10:25:16;23.40;99.90
51486;DHT22;37565;51.352;6.412;2022-07-11T10:27:59;23.40;99.90
51486;DHT22;37565;51.352;6.412;2022-07-11T10:30:42;23.40;99.90
51486;DHT22;37565;51.352;6.412;2022-07-11T10:33:12;23.40;99.90
51486;DHT22;37565;51.352;6.412;2022-07-11T10:35:42;23.40;99.90
51486;DHT22;37565;51.352;6.412;2022-07-11T10:38:11;23.40;99.90
51486;DHT22;37565;51.352;6.412;2022-07-11T10:40:44;23.40;99.90
51486;DHT22;37565;51.352;6.412;2022-07-11T10:43:14;23.40;99.90
51486;DHT22;37565;51.352;6.412;2022-07-11T10:46:00;23.40;99.90
51486;DHT22;37565;51.352;6.412;2022-07-11T10:48:31;23.40;99.90
51486;DHT22;37565;51.352;6.412;2022-07-11T10:51:22;23.40;99.90
51486;DHT22;37565;51.352;6.412;2022-07-11T10:53:52;23.40;99.90
51486;DHT22;37565;51.352;6.412;2022-07-11T10:59:22;23.40;99.90
51486;DHT22;37565;51.352;6.412;2022-07-11T11:02:04;23.40;99.90
51486;DHT22;37565;51.352;6.412;2022-07-11T11:04:43;23.40;99.90
51486;DHT22;37565;51.352;6.412;2022-07-11T11:07:38;23.40;99.90
51486;DHT22;37565;51.352;6.412;2022-07-11T11:13:17;23.40;99.90
51486;DHT22;37565;51.352;6.412;2022-07-11T11:15:48;23.30;99.90
51486;DHT22;37565;51.352;6.412;2022-07-11T11:18:35;23.40;99.90
51486;DHT22;37565;51.352;6.412;2022-07-11T11:21:19;23.40;99.90
51486;DHT22;37565;51.352;6.412;2022-07-11T11:24:06;23.40;99.90
51486;DHT22;37565;51.352;6.412;2022-07-11T11:26:49;23.40;99.90
51486;DHT22;37565;51.352;6.412;2022-07-11T11:29:28;23.40;99.90
51486;DHT22;37565;51.352;6.412;2022-07-11T11:31:58;23.40;99.90
51486;DHT22;37565;51.352;6.412;2022-07-11T11:34:27;23.40;99.90
51486;DHT22;37565;51.352;6.412;2022-07-11T11:36:59;23.30;99.90
51486;DHT22;37565;51.352;6.412;2022-07-11T11:39:33;23.40;99.90
51486;DHT22;37565;51.352;6.412;2022-07-11T11:42:06;23.40;99.90
51486;DHT22;37565;51.352;6.412;2022-07-11T11:44:47;23.30;99.90
51486;DHT22;37565;51.352;6.412;2022-07-11T11:47:15;23.30;99.90
51486;DHT22;37565;51.352;6.412;2022-07-11T11:49:44;23.30;99.90
51486;DHT22;37565;51.352;6.412;2022-07-11T11:52:14;23.30;99.90
51486;DHT22;37565;51.352;6.412;2022-07-11T11:54:43;23.30;99.90
51486;DHT22;37565;51.352;6.412;2022-07-11T11:57:12;23.30;99.90
51486;DHT22;37565;51.352;6.412;2022-07-11T11:59:40;23.30;99.90
51486;DHT22;37565;51.352;6.412;2022-07-11T12:02:09;23.30;99.90
51486;DHT22;37565;51.352;6.412;2022-07-11T12:04:38;23.30;99.90
51486;DHT22;37565;51.352;6.412;2022-07-11T12:07:06;23.30;99.90
51486;DHT22;37565;51.352;6.412;2022-07-11T12:09:36;23.40;99.90
51486;DHT22;37565;51.352;6.412;2022-07-11T12:12:18;23.40;99.90
51486;DHT22;37565;51.352;6.412;2022-07-11T12:15:05;23.40;99.90
51486;DHT22;37565;51.352;6.412;2022-07-11T12:17:36;23.40;99.90
51486;DHT22;37565;51.352;6.412;2022-07-11T12:20:05;23.40;99.90
51486;DHT22;37565;51.352;6.412;2022-07-11T12:22:42;23.40;99.90
51486;DHT22;37565;51.352;6.412;2022-07-11T12:25:12;23.40;99.90
51486;DHT22;37565;51.352;6.412;2022-07-11T12:27:40;23.40;99.90
51486;DHT22;37565;51.352;6.412;2022-07-11T12:30:21;23.40;99.90
51486;DHT22;37565;51.352;6.412;2022-07-11T12:33:05;23.40;99.90
51486;DHT22;37565;51.352;6.412;2022-07-11T12:35:33;23.40;99.90
51486;DHT22;37565;51.352;6.412;2022-07-11T12:38:02;23.40;99.90
51486;DHT22;37565;51.352;6.412;2022-07-11T12:40:34;23.50;99.90
51486;DHT22;37565;51.352;6.412;2022-07-11T12:43:02;23.50;99.90
51486;DHT22;37565;51.352;6.412;2022-07-11T12:46:01;23.50;99.90
51486;DHT22;37565;51.352;6.412;2022-07-11T12:48:37;23.50;99.90
51486;DHT22;37565;51.352;6.412;2022-07-11T12:51:08;23.50;99.90
51486;DHT22;37565;51.352;6.412;2022-07-11T12:53:36;23.50;99.90
51486;DHT22;37565;51.352;6.412;2022-07-11T12:56:06;23.50;99.90
51486;DHT22;37565;51.352;6.412;2022-07-11T12:58:38;23.50;99.90
51486;DHT22;37565;51.352;6.412;2022-07-11T13:01:06;23.50;99.90
51486;DHT22;37565;51.352;6.412;2022-07-11T13:03:35;23.50;99.90
51486;DHT22;37565;51.352;6.412;2022-07-11T13:06:04;23.50;99.90
51486;DHT22;37565;51.352;6.412;2022-07-11T13:08:33;23.50;99.90
51486;DHT22;37565;51.352;6.412;2022-07-11T13:11:11;23.50;99.90
51486;DHT22;37565;51.352;6.412;2022-07-11T13:13:40;23.50;99.90
51486;DHT22;37565;51.352;6.412;2022-07-11T13:16:09;23.50;99.90
51486;DHT22;37565;51.352;6.412;2022-07-11T13:18:37;23.50;99.90
51486;DHT22;37565;51.352;6.412;2022-07-11T13:21:06;23.50;99.90
51486;DHT22;37565;51.352;6.412;2022-07-11T13:23:34;23.50;99.90
51486;DHT22;37565;51.352;6.412;2022-07-11T13:26:03;23.50;99.90
51486;DHT22;37565;51.352;6.412;2022-07-11T13:28:33;23.50;99.90
51486;DHT22;37565;51.352;6.412;2022-07-11T13:31:02;23.50;99.90
51486;DHT22;37565;51.352;6.412;2022-07-11T13:33:42;23.50;99.90
51486;DHT22;37565;51.352;6.412;2022-07-11T13:36:10;23.50;99.90
51486;DHT22;37565;51.352;6.412;2022-07-11T13:38:38;23.60;99.90
51486;DHT22;37565;51.352;6.412;2022-07-11T13:41:06;23.50;99.90
51486;DHT22;37565;51.352;6.412;2022-07-11T13:43:44;23.50;99.90
51486;DHT22;37565;51.352;6.412;2022-07-11T13:46:12;23.50;99.90
51486;DHT22;37565;51.352;6.412;2022-07-11T13:48:40;23.50;99.90
51486;DHT22;37565;51.352;6.412;2022-07-11T13:51:09;23.60;99.90
51486;DHT22;37565;51.352;6.412;2022-07-11T13:53:38;23.50;99.90
51486;DHT22;37565;51.352;6.412;2022-07-11T13:56:06;23.50;99.90
51486;DHT22;37565;51.352;6.412;2022-07-11T13:58:34;23.50;99.90
51486;DHT22;37565;51.352;6.412;2022-07-11T14:01:04;23.50;99.90
51486;DHT22;37565;51.352;6.412;2022-07-11T14:03:32;23.50;99.90
51486;DHT22;37565;51.352;6.412;2022-07-11T14:06:00;23.60;99.90
51486;DHT22;37565;51.352;6.412;2022-07-11T14:08:28;23.60;99.90
51486;DHT22;37565;51.352;6.412;2022-07-11T14:10:56;23.60;99.90
51486;DHT22;37565;51.352;6.412;2022-07-11T14:13:24;23.60;99.90
51486;DHT22;37565;51.352;6.412;2022-07-11T14:15:52;23.60;99.90
51486;DHT22;37565;51.352;6.412;2022-07-11T14:18:22;23.60;99.90
51486;DHT22;37565;51.352;6.412;2022-07-11T14:20:50;23.60;99.90
51486;DHT22;37565;51.352;6.412;2022-07-11T14:23:18;23.60;99.90
51486;DHT22;37565;51.352;6.412;2022-07-11T14:25:46;23.60;99.90
51486;DHT22;37565;51.352;6.412;2022-07-11T14:28:14;23.50;99.90
51486;DHT22;37565;51.352;6.412;2022-07-11T14:30:49;23.60;99.90
51486;DHT22;37565;51.352;6.412;2022-07-11T14:33:17;23.50;99.90
51486;DHT22;37565;51.352;6.412;2022-07-11T14:35:47;23.50;99.90
51486;DHT22;37565;51.352;6.412;2022-07-11T14:38:15;23.50;99.90
51486;DHT22;37565;51.352;6.412;2022-07-11T14:40:44;23.50;99.90
51486;DHT22;37565;51.352;6.412;2022-07-11T14:43:12;23.50;99.90
51486;DHT22;37565;51.352;6.412;2022-07-11T14:45:40;23.50;99.90
51486;DHT22;37565;51.352;6.412;2022-07-11T14:48:08;23.60;99.90
51486;DHT22;37565;51.352;6.412;2022-07-11T14:50:37;23.50;99.90
51486;DHT22;37565;51.352;6.412;2022-07-11T14:53:06;23.50;99.90
51486;DHT22;37565;51.352;6.412;2022-07-11T14:55:34;23.50;99.90
51486;DHT22;37565;51.352;6.412;2022-07-11T14:58:02;23.50;99.90
51486;DHT22;37565;51.352;6.412;2022-07-11T15:00:30;23.50;99.90
51486;DHT22;37565;51.352;6.412;2022-07-11T15:03:05;23.50;99.90
51486;DHT22;37565;51.352;6.412;2022-07-11T15:05:51;23.50;99.90
51486;DHT22;37565;51.352;6.412;2022-07-11T15:08:21;23.50;99.90
51486;DHT22;37565;51.352;6.412;2022-07-11T15:11:06;23.50;99.90
51486;DHT22;37565;51.352;6.412;2022-07-11T15:13:51;23.60;99.90
51486;DHT22;37565;51.352;6.412;2022-07-11T15:16:20;23.60;99.90
51486;DHT22;37565;51.352;6.412;2022-07-11T15:18:48;23.60;99.90
51486;DHT22;37565;51.352;6.412;2022-07-11T15:21:16;23.60;99.90
51486;DHT22;37565;51.352;6.412;2022-07-11T15:23:45;23.50;99.90
51486;DHT22;37565;51.352;6.412;2022-07-11T15:26:14;23.60;99.90
51486;DHT22;37565;51.352;6.412;2022-07-11T15:28:43;23.60;99.90
51486;DHT22;37565;51.352;6.412;2022-07-11T15:31:13;23.60;99.90
51486;DHT22;37565;51.352;6.412;2022-07-11T15:33:42;23.60;99.90
51486;DHT22;37565;51.352;6.412;2022-07-11T15:36:12;23.60;99.90
51486;DHT22;37565;51.352;6.412;2022-07-11T15:38:40;23.60;99.90
51486;DHT22;37565;51.352;6.412;2022-07-11T15:41:12;23.60;99.90
51486;DHT22;37565;51.352;6.412;2022-07-11T15:43:40;23.60;99.90
51486;DHT22;37565;51.352;6.412;2022-07-11T15:46:08;23.60;99.90
51486;DHT22;37565;51.352;6.412;2022-07-11T15:48:37;23.60;99.90
51486;DHT22;37565;51.352;6.412;2022-07-11T15:51:05;23.60;99.90
51486;DHT22;37565;51.352;6.412;2022-07-11T15:53:33;23.60;99.90
51486;DHT22;37565;51.352;6.412;2022-07-11T15:56:02;23.70;99.90